Aérodrome :
LOGIN :

S'inscrire | Disclaimer

   EN    FR    IT 

 










Légende :    VFR   VFR Marginal   IFR   IFR Intensif   IFR Très Intensif
Visi : 
Plafond : 
>= 8 km
>= 3000ft
5 à 8 km
1000 à 3000 ft
1500m à 5 km
500 à 1000 ft
800 à 1500m
200 à 500 ft
< 800m
< 200 ft
Symboles :   Orages  Brouillard  Fortes neiges  Fortes précipitations  Vent > 20 kt
SIGMETs :   Divers  Orages  Givrage  Turbulence  Onde Orograph.  Cendres Volcan.







- Altitude de l'aérodrome : 277 ft
- Code IATA : JER
- Voir les cartes d'approche


EGJJ - Jersey

DERNIER METAR :
  • 230950Z 07004KT 040V110 9999 FEW011 07/05 Q1009 NOSIG

METARs EXPIRÉS :
  • 230920Z 07004KT 030V110 9999 FEW012 07/05 Q1009 NOSIG
  • 230850Z 06007KT 9999 FEW012 07/05 Q1009 NOSIG
  • 230820Z 08006KT 9999 FEW012 06/04 Q1009 NOSIG
  • 230750Z 10008KT 9999 FEW012 06/04 Q1008 NOSIG
  • 230720Z 07007KT 9999 VCSH FEW014 SCT028 06/05 Q1008 NOSIG

TAF TAF EGJJ
Valide du 23 à 09h jusqu'au 23 à 18h UTC


230759Z 2309/2318 06010KT 9999 FEW018 BKN040
TEMPO 2309/2318 8000 -RA BKN015
PROB30
TEMPO 2312/2318 5000 +RA SCT006 BKN010
BECMG 2312/2315 06020KT
ATIS : +44 1534 498 073
Pas de NOTAMs connus pour ce terrain.



MET'MAP, la Météo Aéronautique d'un coup d'oeil ! - Copyright ORBIFLY Décembre 2007 - Disclaimer

ORBIFLY MET'MAP TEAM :

Programmation & Développement : Alexandra Zaïnal
Conception & Développement : Baudouin d'Aumeries
Co-Programmation & Développement : Marc-Olivier Méhu
Soutien technique & logistique : Manuel Goepfert

Contact : metmap@orbifly.com




SOURCES & CREDITS :

   NOAA